sensor_id;sensor_type;location;lat;lon;timestamp;P1;durP1;ratioP1;P2;durP2;ratioP2
10232;SDS011;5161;48.174;11.756;2023-04-16T00:01:07;3.10;;;2.90;;
10232;SDS011;5161;48.174;11.756;2023-04-16T00:03:33;3.40;;;3.20;;
10232;SDS011;5161;48.174;11.756;2023-04-16T00:05:58;3.40;;;3.20;;
10232;SDS011;5161;48.174;11.756;2023-04-16T00:08:24;3.40;;;3.20;;
10232;SDS011;5161;48.174;11.756;2023-04-16T00:10:51;3.50;;;3.30;;
10232;SDS011;5161;48.174;11.756;2023-04-16T00:13:17;3.50;;;3.30;;
10232;SDS011;5161;48.174;11.756;2023-04-16T00:15:43;3.70;;;3.50;;
10232;SDS011;5161;48.174;11.756;2023-04-16T00:18:08;3.50;;;3.10;;
10232;SDS011;5161;48.174;11.756;2023-04-16T00:20:34;3.90;;;3.60;;
10232;SDS011;5161;48.174;11.756;2023-04-16T00:22:59;3.47;;;3.27;;
10232;SDS011;5161;48.174;11.756;2023-04-16T00:25:25;3.50;;;3.30;;
10232;SDS011;5161;48.174;11.756;2023-04-16T00:27:50;3.30;;;3.10;;
10232;SDS011;5161;48.174;11.756;2023-04-16T00:30:16;3.60;;;3.30;;
10232;SDS011;5161;48.174;11.756;2023-04-16T00:32:41;3.30;;;3.10;;
10232;SDS011;5161;48.174;11.756;2023-04-16T00:35:07;3.50;;;3.30;;
10232;SDS011;5161;48.174;11.756;2023-04-16T00:37:33;3.50;;;3.30;;
10232;SDS011;5161;48.174;11.756;2023-04-16T00:39:58;4.07;;;3.77;;
10232;SDS011;5161;48.174;11.756;2023-04-16T00:42:25;4.30;;;4.00;;
10232;SDS011;5161;48.174;11.756;2023-04-16T00:44:51;4.20;;;3.90;;
10232;SDS011;5161;48.174;11.756;2023-04-16T00:47:17;5.20;;;4.80;;
10232;SDS011;5161;48.174;11.756;2023-04-16T00:49:44;5.60;;;5.10;;
10232;SDS011;5161;48.174;11.756;2023-04-16T00:52:10;6.30;;;5.80;;
10232;SDS011;5161;48.174;11.756;2023-04-16T00:54:36;6.47;;;5.87;;
10232;SDS011;5161;48.174;11.756;2023-04-16T00:57:02;6.37;;;5.77;;
10232;SDS011;5161;48.174;11.756;2023-04-16T00:59:28;6.97;;;6.30;;
10232;SDS011;5161;48.174;11.756;2023-04-16T01:01:53;7.20;;;6.50;;
10232;SDS011;5161;48.174;11.756;2023-04-16T01:04:19;7.33;;;6.73;;
10232;SDS011;5161;48.174;11.756;2023-04-16T01:06:45;6.97;;;6.37;;
10232;SDS011;5161;48.174;11.756;2023-04-16T01:09:11;7.30;;;6.60;;
10232;SDS011;5161;48.174;11.756;2023-04-16T01:11:37;7.30;;;6.60;;
10232;SDS011;5161;48.174;11.756;2023-04-16T01:14:03;7.47;;;6.77;;
10232;SDS011;5161;48.174;11.756;2023-04-16T01:16:29;7.37;;;6.77;;
10232;SDS011;5161;48.174;11.756;2023-04-16T01:18:54;7.23;;;6.60;;
10232;SDS011;5161;48.174;11.756;2023-04-16T01:21:20;7.50;;;6.80;;
10232;SDS011;5161;48.174;11.756;2023-04-16T01:23:46;7.83;;;7.10;;
10232;SDS011;5161;48.174;11.756;2023-04-16T01:26:11;7.20;;;6.57;;
10232;SDS011;5161;48.174;11.756;2023-04-16T01:28:37;7.37;;;6.63;;
10232;SDS011;5161;48.174;11.756;2023-04-16T01:31:02;6.97;;;6.37;;
10232;SDS011;5161;48.174;11.756;2023-04-16T01:33:28;7.27;;;6.53;;
10232;SDS011;5161;48.174;11.756;2023-04-16T01:35:53;7.10;;;6.50;;
10232;SDS011;5161;48.174;11.756;2023-04-16T01:38:19;6.80;;;6.20;;
10232;SDS011;5161;48.174;11.756;2023-04-16T01:40:45;6.83;;;6.23;;
10232;SDS011;5161;48.174;11.756;2023-04-16T01:43:10;6.33;;;5.83;;
10232;SDS011;5161;48.174;11.756;2023-04-16T01:45:36;6.70;;;6.13;;
10232;SDS011;5161;48.174;11.756;2023-04-16T01:48:02;6.40;;;5.80;;
10232;SDS011;5161;48.174;11.756;2023-04-16T01:50:27;6.83;;;6.23;;
10232;SDS011;5161;48.174;11.756;2023-04-16T01:52:54;5.70;;;5.27;;
10232;SDS011;5161;48.174;11.756;2023-04-16T01:55:20;6.13;;;5.57;;
10232;SDS011;5161;48.174;11.756;2023-04-16T01:57:45;6.10;;;5.60;;
10232;SDS011;5161;48.174;11.756;2023-04-16T02:00:11;6.10;;;5.57;;
10232;SDS011;5161;48.174;11.756;2023-04-16T02:02:37;5.80;;;5.30;;
10232;SDS011;5161;48.174;11.756;2023-04-16T02:05:03;5.60;;;5.20;;
10232;SDS011;5161;48.174;11.756;2023-04-16T02:07:29;5.87;;;5.27;;
10232;SDS011;5161;48.174;11.756;2023-04-16T02:09:55;5.10;;;4.70;;
10232;SDS011;5161;48.174;11.756;2023-04-16T02:12:22;5.00;;;4.60;;
10232;SDS011;5161;48.174;11.756;2023-04-16T02:14:48;4.70;;;4.33;;
10232;SDS011;5161;48.174;11.756;2023-04-16T02:17:13;5.13;;;4.73;;
10232;SDS011;5161;48.174;11.756;2023-04-16T02:19:39;4.70;;;4.40;;
10232;SDS011;5161;48.174;11.756;2023-04-16T02:22:05;4.90;;;4.50;;
10232;SDS011;5161;48.174;11.756;2023-04-16T02:24:31;4.80;;;4.30;;
10232;SDS011;5161;48.174;11.756;2023-04-16T02:26:56;4.60;;;4.20;;
10232;SDS011;5161;48.174;11.756;2023-04-16T02:29:22;4.87;;;4.47;;
10232;SDS011;5161;48.174;11.756;2023-04-16T02:31:48;5.00;;;4.50;;
10232;SDS011;5161;48.174;11.756;2023-04-16T02:34:14;4.57;;;4.27;;
10232;SDS011;5161;48.174;11.756;2023-04-16T02:36:39;5.63;;;5.23;;
10232;SDS011;5161;48.174;11.756;2023-04-16T02:39:05;5.80;;;5.27;;
10232;SDS011;5161;48.174;11.756;2023-04-16T02:41:31;6.03;;;5.40;;
10232;SDS011;5161;48.174;11.756;2023-04-16T02:43:56;5.50;;;5.10;;
10232;SDS011;5161;48.174;11.756;2023-04-16T02:46:22;5.70;;;5.20;;
10232;SDS011;5161;48.174;11.756;2023-04-16T02:48:48;6.00;;;5.50;;
10232;SDS011;5161;48.174;11.756;2023-04-16T02:51:13;6.07;;;5.57;;
10232;SDS011;5161;48.174;11.756;2023-04-16T02:53:39;5.90;;;5.40;;
10232;SDS011;5161;48.174;11.756;2023-04-16T02:56:05;6.27;;;5.67;;
10232;SDS011;5161;48.174;11.756;2023-04-16T02:58:31;6.23;;;5.70;;
10232;SDS011;5161;48.174;11.756;2023-04-16T03:00:57;6.63;;;6.03;;
10232;SDS011;5161;48.174;11.756;2023-04-16T03:03:22;6.47;;;5.87;;
10232;SDS011;5161;48.174;11.756;2023-04-16T03:05:48;6.50;;;5.90;;
10232;SDS011;5161;48.174;11.756;2023-04-16T03:08:13;6.80;;;6.17;;
10232;SDS011;5161;48.174;11.756;2023-04-16T03:10:39;7.00;;;6.40;;
10232;SDS011;5161;48.174;11.756;2023-04-16T03:13:05;6.70;;;6.10;;
10232;SDS011;5161;48.174;11.756;2023-04-16T03:15:31;7.23;;;6.60;;
10232;SDS011;5161;48.174;11.756;2023-04-16T03:17:57;7.03;;;6.43;;
10232;SDS011;5161;48.174;11.756;2023-04-16T03:20:23;7.00;;;6.40;;
10232;SDS011;5161;48.174;11.756;2023-04-16T03:22:49;6.93;;;6.33;;
10232;SDS011;5161;48.174;11.756;2023-04-16T03:25:16;7.37;;;6.70;;
10232;SDS011;5161;48.174;11.756;2023-04-16T03:27:42;7.67;;;6.97;;
10232;SDS011;5161;48.174;11.756;2023-04-16T03:30:09;7.67;;;6.97;;
10232;SDS011;5161;48.174;11.756;2023-04-16T03:32:36;8.03;;;7.33;;
10232;SDS011;5161;48.174;11.756;2023-04-16T03:35:02;7.13;;;6.53;;
10232;SDS011;5161;48.174;11.756;2023-04-16T03:37:29;7.30;;;6.60;;
10232;SDS011;5161;48.174;11.756;2023-04-16T03:39:54;7.70;;;7.00;;
10232;SDS011;5161;48.174;11.756;2023-04-16T03:42:20;6.70;;;6.10;;
10232;SDS011;5161;48.174;11.756;2023-04-16T03:44:45;7.47;;;6.70;;
10232;SDS011;5161;48.174;11.756;2023-04-16T03:47:11;6.90;;;6.30;;
10232;SDS011;5161;48.174;11.756;2023-04-16T03:49:36;6.50;;;6.00;;
10232;SDS011;5161;48.174;11.756;2023-04-16T03:52:02;6.80;;;6.20;;
10232;SDS011;5161;48.174;11.756;2023-04-16T03:54:27;6.70;;;6.10;;
10232;SDS011;5161;48.174;11.756;2023-04-16T03:56:53;6.30;;;5.80;;
10232;SDS011;5161;48.174;11.756;2023-04-16T03:59:20;6.53;;;5.93;;
10232;SDS011;5161;48.174;11.756;2023-04-16T04:01:45;6.60;;;6.10;;
10232;SDS011;5161;48.174;11.756;2023-04-16T04:04:11;6.63;;;6.03;;
10232;SDS011;5161;48.174;11.756;2023-04-16T04:06:36;6.23;;;5.73;;
10232;SDS011;5161;48.174;11.756;2023-04-16T04:09:02;5.73;;;5.33;;
10232;SDS011;5161;48.174;11.756;2023-04-16T04:11:27;6.20;;;5.60;;
10232;SDS011;5161;48.174;11.756;2023-04-16T04:13:53;5.93;;;5.43;;
10232;SDS011;5161;48.174;11.756;2023-04-16T04:16:19;5.80;;;5.30;;
10232;SDS011;5161;48.174;11.756;2023-04-16T04:18:44;6.37;;;5.87;;
10232;SDS011;5161;48.174;11.756;2023-04-16T04:21:10;5.23;;;4.83;;
10232;SDS011;5161;48.174;11.756;2023-04-16T04:23:35;6.00;;;5.50;;
10232;SDS011;5161;48.174;11.756;2023-04-16T04:26:01;5.87;;;5.30;;
10232;SDS011;5161;48.174;11.756;2023-04-16T04:28:29;5.77;;;5.27;;
10232;SDS011;5161;48.174;11.756;2023-04-16T04:30:56;6.00;;;5.50;;
10232;SDS011;5161;48.174;11.756;2023-04-16T04:33:22;5.87;;;5.20;;
10232;SDS011;5161;48.174;11.756;2023-04-16T04:35:47;6.27;;;5.67;;
10232;SDS011;5161;48.174;11.756;2023-04-16T04:38:13;6.30;;;5.50;;
10232;SDS011;5161;48.174;11.756;2023-04-16T04:40:38;6.10;;;5.60;;
10232;SDS011;5161;48.174;11.756;2023-04-16T04:43:04;6.00;;;5.50;;
10232;SDS011;5161;48.174;11.756;2023-04-16T04:45:30;6.00;;;5.50;;
10232;SDS011;5161;48.174;11.756;2023-04-16T04:47:55;6.30;;;5.80;;
10232;SDS011;5161;48.174;11.756;2023-04-16T04:50:21;6.50;;;5.90;;
10232;SDS011;5161;48.174;11.756;2023-04-16T04:52:46;5.93;;;5.43;;
10232;SDS011;5161;48.174;11.756;2023-04-16T04:55:12;5.87;;;5.37;;
10232;SDS011;5161;48.174;11.756;2023-04-16T04:57:39;6.30;;;5.70;;
10232;SDS011;5161;48.174;11.756;2023-04-16T05:00:05;6.40;;;5.80;;
10232;SDS011;5161;48.174;11.756;2023-04-16T05:02:32;6.03;;;5.43;;
10232;SDS011;5161;48.174;11.756;2023-04-16T05:04:57;6.07;;;5.60;;
10232;SDS011;5161;48.174;11.756;2023-04-16T05:07:23;6.20;;;5.70;;
10232;SDS011;5161;48.174;11.756;2023-04-16T05:09:48;6.20;;;5.70;;
10232;SDS011;5161;48.174;11.756;2023-04-16T05:12:14;6.10;;;5.60;;
10232;SDS011;5161;48.174;11.756;2023-04-16T05:14:40;5.70;;;5.20;;
10232;SDS011;5161;48.174;11.756;2023-04-16T05:17:06;5.83;;;5.33;;
10232;SDS011;5161;48.174;11.756;2023-04-16T05:19:32;6.10;;;5.60;;
10232;SDS011;5161;48.174;11.756;2023-04-16T05:21:57;6.03;;;5.53;;
10232;SDS011;5161;48.174;11.756;2023-04-16T05:24:23;6.07;;;5.57;;
10232;SDS011;5161;48.174;11.756;2023-04-16T05:26:49;5.70;;;5.30;;
10232;SDS011;5161;48.174;11.756;2023-04-16T05:29:15;5.70;;;5.20;;
10232;SDS011;5161;48.174;11.756;2023-04-16T05:31:40;5.63;;;5.23;;
10232;SDS011;5161;48.174;11.756;2023-04-16T05:34:06;5.60;;;5.17;;
10232;SDS011;5161;48.174;11.756;2023-04-16T05:36:31;5.37;;;4.97;;
10232;SDS011;5161;48.174;11.756;2023-04-16T05:38:57;5.60;;;5.20;;
10232;SDS011;5161;48.174;11.756;2023-04-16T05:41:24;5.40;;;5.00;;
10232;SDS011;5161;48.174;11.756;2023-04-16T05:43:49;6.17;;;5.67;;
10232;SDS011;5161;48.174;11.756;2023-04-16T05:46:15;6.00;;;5.50;;
10232;SDS011;5161;48.174;11.756;2023-04-16T05:48:41;5.87;;;5.37;;
10232;SDS011;5161;48.174;11.756;2023-04-16T05:51:07;5.80;;;5.40;;
10232;SDS011;5161;48.174;11.756;2023-04-16T05:53:48;6.00;;;5.50;;
10232;SDS011;5161;48.174;11.756;2023-04-16T05:56:14;6.20;;;5.60;;
10232;SDS011;5161;48.174;11.756;2023-04-16T05:58:40;5.53;;;5.13;;
10232;SDS011;5161;48.174;11.756;2023-04-16T06:01:05;6.27;;;5.40;;
10232;SDS011;5161;48.174;11.756;2023-04-16T06:03:31;5.40;;;5.00;;
10232;SDS011;5161;48.174;11.756;2023-04-16T06:06:03;5.53;;;5.13;;
10232;SDS011;5161;48.174;11.756;2023-04-16T06:08:28;5.27;;;4.80;;
10232;SDS011;5161;48.174;11.756;2023-04-16T06:10:54;5.07;;;4.67;;
10232;SDS011;5161;48.174;11.756;2023-04-16T06:13:20;4.70;;;4.40;;
10232;SDS011;5161;48.174;11.756;2023-04-16T06:15:46;4.53;;;4.23;;
10232;SDS011;5161;48.174;11.756;2023-04-16T06:18:11;4.50;;;4.10;;
10232;SDS011;5161;48.174;11.756;2023-04-16T06:20:40;4.30;;;4.00;;
10232;SDS011;5161;48.174;11.756;2023-04-16T06:23:06;3.93;;;3.73;;
10232;SDS011;5161;48.174;11.756;2023-04-16T06:25:31;3.90;;;3.70;;
10232;SDS011;5161;48.174;11.756;2023-04-16T06:27:57;4.10;;;3.80;;
10232;SDS011;5161;48.174;11.756;2023-04-16T06:30:22;3.60;;;3.40;;
10232;SDS011;5161;48.174;11.756;2023-04-16T06:32:48;3.50;;;3.30;;
10232;SDS011;5161;48.174;11.756;2023-04-16T06:35:14;3.60;;;3.40;;
10232;SDS011;5161;48.174;11.756;2023-04-16T06:37:39;3.87;;;2.97;;
10232;SDS011;5161;48.174;11.756;2023-04-16T06:40:05;2.87;;;2.77;;
10232;SDS011;5161;48.174;11.756;2023-04-16T06:42:31;2.97;;;2.80;;
10232;SDS011;5161;48.174;11.756;2023-04-16T06:44:57;2.80;;;2.70;;
10232;SDS011;5161;48.174;11.756;2023-04-16T06:47:22;3.13;;;3.00;;
10232;SDS011;5161;48.174;11.756;2023-04-16T06:49:48;3.13;;;2.93;;
10232;SDS011;5161;48.174;11.756;2023-04-16T06:52:14;2.43;;;2.33;;
10232;SDS011;5161;48.174;11.756;2023-04-16T06:54:39;3.10;;;2.90;;
10232;SDS011;5161;48.174;11.756;2023-04-16T06:57:05;2.37;;;2.27;;
10232;SDS011;5161;48.174;11.756;2023-04-16T06:59:31;2.50;;;2.40;;
10232;SDS011;5161;48.174;11.756;2023-04-16T07:01:57;2.30;;;2.20;;
10232;SDS011;5161;48.174;11.756;2023-04-16T07:04:24;2.40;;;2.20;;
10232;SDS011;5161;48.174;11.756;2023-04-16T07:06:50;2.33;;;2.23;;
10232;SDS011;5161;48.174;11.756;2023-04-16T07:09:15;2.23;;;2.17;;
10232;SDS011;5161;48.174;11.756;2023-04-16T07:11:44;2.10;;;2.00;;
10232;SDS011;5161;48.174;11.756;2023-04-16T07:14:10;2.23;;;2.13;;
10232;SDS011;5161;48.174;11.756;2023-04-16T07:16:36;2.20;;;2.10;;
10232;SDS011;5161;48.174;11.756;2023-04-16T07:19:02;2.27;;;1.80;;
10232;SDS011;5161;48.174;11.756;2023-04-16T07:21:27;1.60;;;1.60;;
10232;SDS011;5161;48.174;11.756;2023-04-16T07:23:53;1.60;;;1.60;;
10232;SDS011;5161;48.174;11.756;2023-04-16T07:26:19;1.80;;;1.70;;
10232;SDS011;5161;48.174;11.756;2023-04-16T07:28:44;1.80;;;1.80;;
10232;SDS011;5161;48.174;11.756;2023-04-16T07:31:10;1.70;;;1.70;;
10232;SDS011;5161;48.174;11.756;2023-04-16T07:33:36;1.83;;;1.80;;
10232;SDS011;5161;48.174;11.756;2023-04-16T07:36:02;1.60;;;1.60;;
10232;SDS011;5161;48.174;11.756;2023-04-16T07:38:29;1.30;;;1.30;;
10232;SDS011;5161;48.174;11.756;2023-04-16T07:40:54;1.30;;;1.30;;
10232;SDS011;5161;48.174;11.756;2023-04-16T07:43:20;1.40;;;1.40;;
10232;SDS011;5161;48.174;11.756;2023-04-16T07:45:46;1.63;;;1.40;;
10232;SDS011;5161;48.174;11.756;2023-04-16T07:48:12;1.30;;;1.30;;
10232;SDS011;5161;48.174;11.756;2023-04-16T07:50:38;1.33;;;1.33;;
10232;SDS011;5161;48.174;11.756;2023-04-16T07:53:03;1.30;;;1.30;;
10232;SDS011;5161;48.174;11.756;2023-04-16T07:55:31;1.47;;;1.47;;
10232;SDS011;5161;48.174;11.756;2023-04-16T07:57:57;2.93;;;2.73;;
10232;SDS011;5161;48.174;11.756;2023-04-16T08:00:22;2.10;;;2.00;;
10232;SDS011;5161;48.174;11.756;2023-04-16T08:02:48;1.20;;;1.20;;
10232;SDS011;5161;48.174;11.756;2023-04-16T08:05:13;2.57;;;2.47;;
10232;SDS011;5161;48.174;11.756;2023-04-16T08:07:39;2.10;;;2.00;;
10232;SDS011;5161;48.174;11.756;2023-04-16T08:10:05;1.53;;;1.53;;
10232;SDS011;5161;48.174;11.756;2023-04-16T08:12:31;1.10;;;1.10;;
10232;SDS011;5161;48.174;11.756;2023-04-16T08:14:56;1.07;;;1.07;;
10232;SDS011;5161;48.174;11.756;2023-04-16T08:17:22;1.10;;;1.10;;
10232;SDS011;5161;48.174;11.756;2023-04-16T08:19:47;1.00;;;1.00;;
10232;SDS011;5161;48.174;11.756;2023-04-16T08:22:13;1.07;;;1.07;;
10232;SDS011;5161;48.174;11.756;2023-04-16T08:24:39;1.00;;;1.00;;
10232;SDS011;5161;48.174;11.756;2023-04-16T08:27:04;1.10;;;1.10;;
10232;SDS011;5161;48.174;11.756;2023-04-16T08:29:30;1.00;;;1.00;;
10232;SDS011;5161;48.174;11.756;2023-04-16T08:31:56;0.90;;;0.90;;
10232;SDS011;5161;48.174;11.756;2023-04-16T08:34:23;1.07;;;1.07;;
10232;SDS011;5161;48.174;11.756;2023-04-16T08:36:48;1.10;;;1.10;;
10232;SDS011;5161;48.174;11.756;2023-04-16T08:39:14;1.10;;;1.10;;
10232;SDS011;5161;48.174;11.756;2023-04-16T08:41:40;0.90;;;0.90;;
10232;SDS011;5161;48.174;11.756;2023-04-16T08:44:14;1.00;;;1.00;;
10232;SDS011;5161;48.174;11.756;2023-04-16T08:46:45;0.90;;;0.90;;
10232;SDS011;5161;48.174;11.756;2023-04-16T08:49:14;1.00;;;1.00;;
10232;SDS011;5161;48.174;11.756;2023-04-16T08:51:47;1.00;;;1.00;;
10232;SDS011;5161;48.174;11.756;2023-04-16T08:54:16;1.03;;;1.03;;
10232;SDS011;5161;48.174;11.756;2023-04-16T08:57:19;1.10;;;1.10;;
10232;SDS011;5161;48.174;11.756;2023-04-16T08:59:48;0.90;;;0.90;;
10232;SDS011;5161;48.174;11.756;2023-04-16T09:02:16;1.07;;;1.00;;
10232;SDS011;5161;48.174;11.756;2023-04-16T09:04:41;1.10;;;1.10;;
10232;SDS011;5161;48.174;11.756;2023-04-16T09:07:08;0.90;;;0.90;;
10232;SDS011;5161;48.174;11.756;2023-04-16T09:09:34;1.00;;;1.00;;
10232;SDS011;5161;48.174;11.756;2023-04-16T09:12:03;1.10;;;1.10;;
10232;SDS011;5161;48.174;11.756;2023-04-16T09:14:29;1.00;;;1.00;;
10232;SDS011;5161;48.174;11.756;2023-04-16T09:16:55;1.00;;;1.00;;
10232;SDS011;5161;48.174;11.756;2023-04-16T09:19:21;0.90;;;0.90;;
10232;SDS011;5161;48.174;11.756;2023-04-16T09:21:48;1.00;;;1.00;;
10232;SDS011;5161;48.174;11.756;2023-04-16T09:24:13;1.10;;;1.10;;
10232;SDS011;5161;48.174;11.756;2023-04-16T09:26:40;1.00;;;1.00;;
10232;SDS011;5161;48.174;11.756;2023-04-16T09:29:07;0.90;;;0.90;;
10232;SDS011;5161;48.174;11.756;2023-04-16T09:31:33;0.93;;;0.93;;
10232;SDS011;5161;48.174;11.756;2023-04-16T09:34:00;0.90;;;0.90;;
10232;SDS011;5161;48.174;11.756;2023-04-16T09:36:30;0.80;;;0.80;;
10232;SDS011;5161;48.174;11.756;2023-04-16T09:38:56;0.97;;;0.97;;
10232;SDS011;5161;48.174;11.756;2023-04-16T09:41:24;0.90;;;0.90;;
10232;SDS011;5161;48.174;11.756;2023-04-16T09:43:54;1.00;;;1.00;;
10232;SDS011;5161;48.174;11.756;2023-04-16T09:46:24;0.90;;;0.90;;
10232;SDS011;5161;48.174;11.756;2023-04-16T09:49:09;1.00;;;1.00;;
10232;SDS011;5161;48.174;11.756;2023-04-16T09:51:48;0.90;;;0.90;;
10232;SDS011;5161;48.174;11.756;2023-04-16T09:54:17;0.80;;;0.80;;
10232;SDS011;5161;48.174;11.756;2023-04-16T09:56:44;0.90;;;0.90;;
10232;SDS011;5161;48.174;11.756;2023-04-16T09:59:20;0.90;;;0.90;;
10232;SDS011;5161;48.174;11.756;2023-04-16T10:01:46;2.47;;;0.87;;
10232;SDS011;5161;48.174;11.756;2023-04-16T10:04:17;1.13;;;0.70;;
10232;SDS011;5161;48.174;11.756;2023-04-16T10:06:43;0.77;;;0.77;;
10232;SDS011;5161;48.174;11.756;2023-04-16T10:09:12;0.70;;;0.70;;
10232;SDS011;5161;48.174;11.756;2023-04-16T10:11:37;0.73;;;0.73;;
10232;SDS011;5161;48.174;11.756;2023-04-16T10:14:03;0.80;;;0.80;;
10232;SDS011;5161;48.174;11.756;2023-04-16T10:16:29;0.90;;;0.90;;
10232;SDS011;5161;48.174;11.756;2023-04-16T10:18:54;0.73;;;0.73;;
10232;SDS011;5161;48.174;11.756;2023-04-16T10:21:21;0.80;;;0.80;;
10232;SDS011;5161;48.174;11.756;2023-04-16T10:23:46;0.80;;;0.80;;
10232;SDS011;5161;48.174;11.756;2023-04-16T10:26:13;0.77;;;0.77;;
10232;SDS011;5161;48.174;11.756;2023-04-16T10:28:41;0.90;;;0.90;;
10232;SDS011;5161;48.174;11.756;2023-04-16T10:31:09;0.80;;;0.80;;
10232;SDS011;5161;48.174;11.756;2023-04-16T10:33:38;0.80;;;0.80;;
10232;SDS011;5161;48.174;11.756;2023-04-16T10:36:11;0.67;;;0.67;;
10232;SDS011;5161;48.174;11.756;2023-04-16T10:38:38;0.80;;;0.80;;
10232;SDS011;5161;48.174;11.756;2023-04-16T10:41:06;0.90;;;0.90;;
10232;SDS011;5161;48.174;11.756;2023-04-16T10:43:37;1.40;;;0.80;;
10232;SDS011;5161;48.174;11.756;2023-04-16T10:48:45;0.80;;;0.80;;
10232;SDS011;5161;48.174;11.756;2023-04-16T10:51:54;0.80;;;0.80;;
10232;SDS011;5161;48.174;11.756;2023-04-16T10:56:33;0.90;;;0.90;;
10232;SDS011;5161;48.174;11.756;2023-04-16T10:58:59;0.87;;;0.87;;
10232;SDS011;5161;48.174;11.756;2023-04-16T11:01:34;0.70;;;0.70;;
10232;SDS011;5161;48.174;11.756;2023-04-16T11:07:02;1.70;;;1.00;;
10232;SDS011;5161;48.174;11.756;2023-04-16T11:17:38;0.90;;;0.90;;
10232;SDS011;5161;48.174;11.756;2023-04-16T11:20:06;0.80;;;0.80;;
10232;SDS011;5161;48.174;11.756;2023-04-16T11:22:39;0.90;;;0.90;;
10232;SDS011;5161;48.174;11.756;2023-04-16T11:25:06;0.90;;;0.90;;
10232;SDS011;5161;48.174;11.756;2023-04-16T11:27:32;0.93;;;0.93;;
10232;SDS011;5161;48.174;11.756;2023-04-16T11:30:05;1.00;;;1.00;;
10232;SDS011;5161;48.174;11.756;2023-04-16T11:32:34;2.00;;;1.00;;
10232;SDS011;5161;48.174;11.756;2023-04-16T11:35:01;1.10;;;1.10;;
10232;SDS011;5161;48.174;11.756;2023-04-16T11:37:33;1.00;;;1.00;;
10232;SDS011;5161;48.174;11.756;2023-04-16T11:40:00;1.10;;;1.00;;
10232;SDS011;5161;48.174;11.756;2023-04-16T11:42:31;1.00;;;1.00;;
10232;SDS011;5161;48.174;11.756;2023-04-16T11:44:58;1.13;;;1.13;;
10232;SDS011;5161;48.174;11.756;2023-04-16T11:47:25;1.20;;;1.10;;
10232;SDS011;5161;48.174;11.756;2023-04-16T11:49:51;1.00;;;1.00;;
10232;SDS011;5161;48.174;11.756;2023-04-16T11:52:27;1.10;;;1.10;;
10232;SDS011;5161;48.174;11.756;2023-04-16T11:54:57;1.10;;;1.10;;
10232;SDS011;5161;48.174;11.756;2023-04-16T11:57:24;0.90;;;0.90;;
10232;SDS011;5161;48.174;11.756;2023-04-16T11:59:54;1.40;;;1.40;;
10232;SDS011;5161;48.174;11.756;2023-04-16T12:02:35;1.30;;;1.30;;
10232;SDS011;5161;48.174;11.756;2023-04-16T12:05:02;1.30;;;1.20;;
10232;SDS011;5161;48.174;11.756;2023-04-16T12:07:29;1.20;;;1.20;;
10232;SDS011;5161;48.174;11.756;2023-04-16T12:10:07;1.60;;;1.60;;
10232;SDS011;5161;48.174;11.756;2023-04-16T12:12:33;1.47;;;1.40;;
10232;SDS011;5161;48.174;11.756;2023-04-16T12:15:00;1.47;;;1.47;;
10232;SDS011;5161;48.174;11.756;2023-04-16T12:17:30;1.73;;;1.67;;
10232;SDS011;5161;48.174;11.756;2023-04-16T12:19:58;1.20;;;1.20;;
10232;SDS011;5161;48.174;11.756;2023-04-16T12:22:28;1.40;;;1.40;;
10232;SDS011;5161;48.174;11.756;2023-04-16T12:24:55;1.30;;;1.30;;
10232;SDS011;5161;48.174;11.756;2023-04-16T12:27:23;1.20;;;1.20;;
10232;SDS011;5161;48.174;11.756;2023-04-16T12:30:04;1.27;;;1.27;;
10232;SDS011;5161;48.174;11.756;2023-04-16T12:32:31;1.40;;;1.40;;
10232;SDS011;5161;48.174;11.756;2023-04-16T12:34:57;1.20;;;1.20;;
10232;SDS011;5161;48.174;11.756;2023-04-16T12:37:23;1.20;;;1.20;;
10232;SDS011;5161;48.174;11.756;2023-04-16T12:39:48;1.10;;;1.10;;
10232;SDS011;5161;48.174;11.756;2023-04-16T12:42:14;1.30;;;1.30;;
10232;SDS011;5161;48.174;11.756;2023-04-16T12:44:40;1.20;;;1.20;;
10232;SDS011;5161;48.174;11.756;2023-04-16T12:47:05;1.20;;;1.20;;
10232;SDS011;5161;48.174;11.756;2023-04-16T12:49:31;1.70;;;1.20;;
10232;SDS011;5161;48.174;11.756;2023-04-16T12:51:57;1.20;;;1.20;;
10232;SDS011;5161;48.174;11.756;2023-04-16T12:54:22;1.23;;;1.23;;
10232;SDS011;5161;48.174;11.756;2023-04-16T12:56:52;1.30;;;1.30;;
10232;SDS011;5161;48.174;11.756;2023-04-16T12:59:18;1.60;;;1.50;;
10232;SDS011;5161;48.174;11.756;2023-04-16T13:01:43;1.20;;;1.20;;
10232;SDS011;5161;48.174;11.756;2023-04-16T13:04:09;1.20;;;1.20;;
10232;SDS011;5161;48.174;11.756;2023-04-16T13:06:35;1.20;;;1.20;;
10232;SDS011;5161;48.174;11.756;2023-04-16T13:09:01;7.70;;;6.60;;
10232;SDS011;5161;48.174;11.756;2023-04-16T13:11:28;2.17;;;1.97;;
10232;SDS011;5161;48.174;11.756;2023-04-16T13:13:54;1.30;;;1.30;;
10232;SDS011;5161;48.174;11.756;2023-04-16T13:16:19;1.40;;;1.27;;
10232;SDS011;5161;48.174;11.756;2023-04-16T13:18:45;1.20;;;1.20;;
10232;SDS011;5161;48.174;11.756;2023-04-16T13:21:10;1.30;;;1.30;;
10232;SDS011;5161;48.174;11.756;2023-04-16T13:23:36;1.40;;;1.40;;
10232;SDS011;5161;48.174;11.756;2023-04-16T13:26:02;2.30;;;1.57;;
10232;SDS011;5161;48.174;11.756;2023-04-16T13:28:27;1.40;;;1.40;;
10232;SDS011;5161;48.174;11.756;2023-04-16T13:30:53;1.53;;;1.50;;
10232;SDS011;5161;48.174;11.756;2023-04-16T13:33:19;1.40;;;1.40;;
10232;SDS011;5161;48.174;11.756;2023-04-16T13:35:45;1.63;;;1.40;;
10232;SDS011;5161;48.174;11.756;2023-04-16T13:38:12;1.30;;;1.30;;
10232;SDS011;5161;48.174;11.756;2023-04-16T13:40:38;1.60;;;1.50;;
10232;SDS011;5161;48.174;11.756;2023-04-16T13:43:03;1.53;;;1.50;;
10232;SDS011;5161;48.174;11.756;2023-04-16T13:45:29;1.20;;;1.20;;
10232;SDS011;5161;48.174;11.756;2023-04-16T13:47:54;1.40;;;1.40;;
10232;SDS011;5161;48.174;11.756;2023-04-16T13:50:20;1.57;;;1.57;;
10232;SDS011;5161;48.174;11.756;2023-04-16T13:52:45;1.50;;;1.50;;
10232;SDS011;5161;48.174;11.756;2023-04-16T13:55:11;1.40;;;1.40;;
10232;SDS011;5161;48.174;11.756;2023-04-16T13:57:38;1.40;;;1.30;;
10232;SDS011;5161;48.174;11.756;2023-04-16T14:00:05;1.37;;;1.37;;
10232;SDS011;5161;48.174;11.756;2023-04-16T14:02:31;1.30;;;1.30;;
10232;SDS011;5161;48.174;11.756;2023-04-16T14:04:57;1.33;;;1.33;;
10232;SDS011;5161;48.174;11.756;2023-04-16T14:07:22;1.40;;;1.40;;
10232;SDS011;5161;48.174;11.756;2023-04-16T14:09:52;1.60;;;1.60;;
10232;SDS011;5161;48.174;11.756;2023-04-16T14:12:17;1.37;;;1.37;;
10232;SDS011;5161;48.174;11.756;2023-04-16T14:14:43;1.30;;;1.30;;
10232;SDS011;5161;48.174;11.756;2023-04-16T14:17:09;1.30;;;1.30;;
10232;SDS011;5161;48.174;11.756;2023-04-16T14:19:34;1.73;;;1.30;;
10232;SDS011;5161;48.174;11.756;2023-04-16T14:22:00;1.27;;;1.27;;
10232;SDS011;5161;48.174;11.756;2023-04-16T14:24:25;3.63;;;1.77;;
10232;SDS011;5161;48.174;11.756;2023-04-16T14:26:51;1.33;;;1.27;;
10232;SDS011;5161;48.174;11.756;2023-04-16T14:29:16;2.13;;;1.37;;
10232;SDS011;5161;48.174;11.756;2023-04-16T14:31:42;1.23;;;1.23;;
10232;SDS011;5161;48.174;11.756;2023-04-16T14:34:08;1.13;;;1.13;;
10232;SDS011;5161;48.174;11.756;2023-04-16T14:36:34;1.20;;;1.20;;
10232;SDS011;5161;48.174;11.756;2023-04-16T14:39:00;4.23;;;1.60;;
10232;SDS011;5161;48.174;11.756;2023-04-16T14:41:26;1.33;;;1.33;;
10232;SDS011;5161;48.174;11.756;2023-04-16T14:43:51;1.70;;;1.60;;
10232;SDS011;5161;48.174;11.756;2023-04-16T14:46:17;1.73;;;1.63;;
10232;SDS011;5161;48.174;11.756;2023-04-16T14:48:43;1.60;;;1.50;;
10232;SDS011;5161;48.174;11.756;2023-04-16T14:51:08;1.80;;;1.70;;
10232;SDS011;5161;48.174;11.756;2023-04-16T14:53:37;1.53;;;1.53;;
10232;SDS011;5161;48.174;11.756;2023-04-16T14:56:03;1.60;;;1.60;;
10232;SDS011;5161;48.174;11.756;2023-04-16T14:58:29;1.83;;;1.77;;
10232;SDS011;5161;48.174;11.756;2023-04-16T15:00:56;1.60;;;1.50;;